Time;durP1;ratioP1;P1;durP2;ratioP2;P2;SDS_P1;SDS_P2;PMS_P1;PMS_P2;Temp;Humidity;BMP_temperature;BMP_pressure;BME280_temperature;BME280_humidity;BME280_pressure;Samples;Min_cycle;Max_cycle;Signal;HPM_P1;HPM_P2
2021/11/05 00:01:01;;;;;;;7.97;4.90;;;;;;;5.77;100.00;99962.91;6156004;23;20263;-74
2021/11/05 00:03:29;;;;;;;7.57;4.60;;;;;;;5.78;100.00;99968.91;6146038;23;20806;-74
2021/11/05 00:05:56;;;;;;;7.23;4.83;;;;;;;5.78;100.00;99968.91;6155609;23;20251;-74
2021/11/05 00:08:23;;;;;;;6.13;5.07;;;;;;;5.78;100.00;99982.69;6145460;23;20168;-74
2021/11/05 00:10:51;;;;;;;6.33;4.70;;;;;;;5.77;100.00;99986.19;6154277;23;20264;-75
2021/11/05 00:13:17;;;;;;;8.03;5.23;;;;;;;5.78;100.00;99987.88;6154130;23;20177;-75
2021/11/05 00:15:44;;;;;;;6.43;4.70;;;;;;;5.77;100.00;99993.94;6155748;23;20195;-76
2021/11/05 00:18:12;;;;;;;7.80;5.00;;;;;;;5.78;100.00;99994.78;6147333;23;20283;-76
2021/11/05 00:20:38;;;;;;;6.87;4.93;;;;;;;5.78;100.00;100000.81;6157959;23;20177;-76
2021/11/05 00:23:04;;;;;;;8.60;5.10;;;;;;;5.78;100.00;99999.97;6157801;23;20191;-76
2021/11/05 00:25:31;;;;;;;7.53;4.67;;;;;;;5.80;100.00;100008.56;6147877;23;20841;-76
2021/11/05 00:27:58;;;;;;;6.87;4.60;;;;;;;5.79;100.00;100010.28;6157003;23;20180;-76
2021/11/05 00:30:25;;;;;;;8.93;5.57;;;;;;;5.79;100.00;100012.03;6158079;23;20184;-77
2021/11/05 00:32:51;;;;;;;10.30;5.40;;;;;;;5.80;100.00;100018.91;6158379;23;20173;-75
2021/11/05 00:35:19;;;;;;;7.53;5.47;;;;;;;5.80;100.00;100024.06;6157253;23;20667;-75
2021/11/05 00:37:45;;;;;;;6.63;4.97;;;;;;;5.81;100.00;100031.81;6158176;23;20197;-76
2021/11/05 00:41:02;;;;;;;6.50;4.40;;;;;;;5.81;100.00;100034.41;6157518;23;20168;-76
2021/11/05 00:43:29;;;;;;;7.53;5.50;;;;;;;5.82;100.00;100037.84;6157434;23;20204;-75
2021/11/05 00:45:55;;;;;;;8.87;5.60;;;;;;;5.80;100.00;100044.75;6156855;23;20267;-76
2021/11/05 00:48:21;;;;;;;8.73;4.93;;;;;;;5.81;100.00;100043.91;6157159;23;20183;-76
2021/11/05 00:50:49;;;;;;;8.67;6.00;;;;;;;5.82;100.00;100046.47;6158009;23;20176;-75
2021/11/05 00:53:16;;;;;;;10.60;6.03;;;;;;;5.83;100.00;100050.75;6157123;23;20208;-76
2021/11/05 00:55:42;;;;;;;9.70;5.83;;;;;;;5.83;100.00;100053.34;6148163;23;20261;-73
2021/11/05 00:58:09;;;;;;;10.67;6.90;;;;;;;5.84;100.00;100061.94;6157253;23;20192;-75
2021/11/05 01:00:35;;;;;;;10.13;6.77;;;;;;;5.85;100.00;100063.66;6157753;23;20405;-73
2021/11/05 01:03:02;;;;;;;13.53;6.83;;;;;;;5.88;100.00;100071.38;6157457;23;20180;-74
2021/11/05 01:05:29;;;;;;;13.53;7.30;;;;;;;5.87;100.00;100078.31;6157351;23;20279;-74
2021/11/05 01:07:56;;;;;;;12.07;6.97;;;;;;;5.86;100.00;100088.66;6147751;23;20216;-73
2021/11/05 01:10:23;;;;;;;11.63;6.80;;;;;;;5.88;100.00;100089.50;6157665;23;20285;-73
2021/11/05 01:12:49;;;;;;;13.40;8.13;;;;;;;5.88;100.00;100095.50;6157784;23;20176;-75
2021/11/05 01:15:16;;;;;;;11.07;7.30;;;;;;;5.90;100.00;100103.25;6157366;23;20196;-75
2021/11/05 01:17:43;;;;;;;13.67;8.10;;;;;;;5.91;100.00;100102.41;6157777;23;20443;-74
2021/11/05 01:23:34;;;;;;;14.70;7.67;;;;;;;5.95;100.00;100111.81;6155634;23;20591;-75
2021/11/05 01:26:01;;;;;;;16.30;8.20;;;;;;;5.94;100.00;100117.84;6157721;23;20201;-74
2021/11/05 01:28:27;;;;;;;12.80;8.10;;;;;;;5.94;100.00;100125.63;6156803;23;20615;-74
2021/11/05 01:30:54;;;;;;;14.07;8.30;;;;;;;5.92;100.00;100121.34;6157788;23;20179;-74
2021/11/05 01:33:21;;;;;;;13.83;8.17;;;;;;;5.94;100.00;100127.34;6156354;23;20184;-73
2021/11/05 01:35:49;;;;;;;12.40;7.77;;;;;;;5.92;100.00;100127.38;6157119;23;20530;-74
2021/11/05 01:38:16;;;;;;;14.27;8.53;;;;;;;5.91;100.00;100133.44;6156927;23;20193;-74
2021/11/05 01:40:44;;;;;;;12.87;7.77;;;;;;;5.91;100.00;100129.97;6146794;23;20185;-75
2021/11/05 01:43:12;;;;;;;13.13;7.97;;;;;;;5.90;100.00;100138.63;6156805;23;20208;-73
2021/11/05 01:45:40;;;;;;;11.07;6.97;;;;;;;5.88;100.00;100134.31;6157132;23;20672;-73
2021/11/05 01:48:07;;;;;;;12.80;7.33;;;;;;;5.88;100.00;100143.84;6157033;23;20203;-73
2021/11/05 01:50:34;;;;;;;10.27;7.20;;;;;;;5.88;100.00;100141.25;6157306;23;20173;-73
2021/11/05 01:53:01;;;;;;;9.97;6.43;;;;;;;5.87;100.00;100144.69;6156713;23;20271;-73
2021/11/05 01:55:28;;;;;;;11.67;6.90;;;;;;;5.85;100.00;100155.06;6147194;23;20204;-74
2021/11/05 01:57:55;;;;;;;11.97;6.93;;;;;;;5.85;100.00;100157.66;6156757;23;20584;-73
2021/11/05 02:00:24;;;;;;;9.07;6.07;;;;;;;5.85;100.00;100160.25;6156988;23;20173;-74
2021/11/05 02:03:35;;;;;;;11.67;7.17;;;;;;;5.83;100.00;100161.16;6157019;23;20762;-74
2021/11/05 02:09:49;;;;;;;11.10;6.00;;;;;;;5.81;100.00;100168.09;6155188;23;20175;-73
2021/11/05 02:12:16;;;;;;;11.90;6.60;;;;;;;5.82;100.00;100174.94;6155522;23;20173;-74
2021/11/05 02:14:47;;;;;;;12.67;6.70;;;;;;;5.79;100.00;100175.00;6156016;23;20200;-74
2021/11/05 02:17:14;;;;;;;9.20;6.07;;;;;;;5.78;100.00;100178.47;6155519;23;20651;-74
2021/11/05 02:19:42;;;;;;;9.87;5.97;;;;;;;5.76;100.00;100178.47;6146450;23;20180;-73
2021/11/05 02:22:10;;;;;;;10.10;6.63;;;;;;;5.76;100.00;100183.66;6155948;23;20208;-74
2021/11/05 02:24:37;;;;;;;11.63;6.37;;;;;;;5.77;100.00;100189.69;6156093;23;20200;-73
2021/11/05 02:27:03;;;;;;;11.87;6.83;;;;;;;5.74;100.00;100182.81;6156386;23;20264;-73
2021/11/05 02:29:33;;;;;;;11.83;7.23;;;;;;;5.73;100.00;100186.28;6155024;23;20659;-73
2021/11/05 02:32:00;;;;;;;15.63;8.57;;;;;;;5.73;100.00;100193.19;6156481;23;20804;-73
2021/11/05 02:34:27;;;;;;;12.73;7.93;;;;;;;5.72;100.00;100197.53;6155685;23;20212;-73
2021/11/05 02:36:53;;;;;;;12.13;7.50;;;;;;;5.72;100.00;100192.34;6156718;23;20207;-74
2021/11/05 02:39:22;;;;;;;15.03;8.27;;;;;;;5.69;100.00;100193.22;6156148;23;20204;-73
2021/11/05 02:41:51;;;;;;;14.37;8.07;;;;;;;5.69;100.00;100195.81;6155048;23;20212;-74
2021/11/05 02:44:18;;;;;;;14.33;8.63;;;;;;;5.68;100.00;100201.00;6154935;23;20256;-73
2021/11/05 02:46:44;;;;;;;15.37;9.07;;;;;;;5.67;100.00;100205.31;6155486;23;20608;-73
2021/11/05 02:49:13;;;;;;;15.37;9.27;;;;;;;5.68;100.00;100204.47;6155743;23;20832;-73
2021/11/05 02:52:36;;;;;;;15.70;8.83;;;;;;;5.68;100.00;100207.06;6155900;23;20547;-74
2021/11/05 02:55:06;;;;;;;15.40;9.07;;;;;;;5.67;100.00;100218.25;6144430;23;20204;-74
2021/11/05 02:57:32;;;;;;;14.33;9.27;;;;;;;5.67;100.00;100222.59;6156611;23;20632;-74
2021/11/05 02:59:59;;;;;;;15.30;8.97;;;;;;;5.67;100.00;100231.19;6155476;23;20172;-73
2021/11/05 03:06:12;;;;;;;15.27;8.47;;;;;;;5.68;100.00;100253.63;6156433;23;20180;-73
2021/11/05 03:11:47;;;;;;;12.20;7.63;;;;;;;5.68;100.00;100273.44;5988363;23;20208;-73
2021/11/05 03:14:14;;;;;;;12.37;7.30;;;;;;;5.67;100.00;100279.50;6095638;23;20191;-73
2021/11/05 03:16:42;;;;;;;10.47;6.87;;;;;;;5.64;100.00;100292.44;6156300;23;20637;-74
2021/11/05 03:23:32;;;;;;;8.40;5.00;;;;;;;5.60;100.00;100308.88;6155941;23;20168;-74
2021/11/05 03:25:59;;;;;;;7.50;4.90;;;;;;;5.60;100.00;100308.88;6156128;23;20206;-73
2021/11/05 03:28:58;;;;;;;8.43;5.27;;;;;;;5.59;100.00;100320.94;6156132;23;20211;-73
2021/11/05 03:31:24;;;;;;;7.77;5.30;;;;;;;5.57;100.00;100321.84;6156040;23;20177;-74
2021/11/05 03:33:51;;;;;;;8.47;5.20;;;;;;;5.57;100.00;100320.09;6156436;23;20181;-74
2021/11/05 03:36:48;;;;;;;8.37;5.77;;;;;;;5.56;100.00;100327.88;6145398;23;20204;-73
2021/11/05 03:40:07;;;;;;;8.37;5.73;;;;;;;5.56;100.00;100346.88;6155363;23;20263;-73
2021/11/05 03:42:34;;;;;;;9.93;6.20;;;;;;;5.55;100.00;100346.88;6153978;23;20212;-73
2021/11/05 03:45:01;;;;;;;8.93;5.63;;;;;;;5.55;100.00;100349.47;6155119;23;20196;-73
2021/11/05 03:47:28;;;;;;;8.17;5.77;;;;;;;5.56;100.00;100358.91;6156485;23;20176;-73
2021/11/05 03:49:55;;;;;;;8.57;5.93;;;;;;;5.57;100.00;100358.06;6118496;23;20195;-74
2021/11/05 03:52:21;;;;;;;11.97;6.30;;;;;;;5.57;100.00;100358.91;6119998;23;20702;-73
2021/11/05 03:54:48;;;;;;;9.87;6.40;;;;;;;5.57;100.00;100371.84;6151656;23;20418;-76
2021/11/05 03:57:14;;;;;;;9.10;5.77;;;;;;;5.57;100.00;100369.25;6155894;23;20215;-75
2021/11/05 03:59:40;;;;;;;12.17;7.07;;;;;;;5.57;100.00;100378.75;6155494;23;20275;-76
2021/11/05 04:02:08;;;;;;;10.27;6.27;;;;;;;5.56;100.00;100371.84;6155674;23;20580;-75
2021/11/05 04:04:35;;;;;;;11.00;6.03;;;;;;;5.54;100.00;100371.88;6155142;23;20655;-76
2021/11/05 04:07:01;;;;;;;9.97;5.83;;;;;;;5.54;100.00;100378.75;6155671;23;20180;-75
2021/11/05 04:09:28;;;;;;;9.73;5.73;;;;;;;5.52;100.00;100378.78;6155472;23;20176;-75
2021/11/05 04:11:54;;;;;;;6.80;5.13;;;;;;;5.53;100.00;100383.09;6156742;23;20177;-74
2021/11/05 04:14:20;;;;;;;9.77;5.87;;;;;;;5.53;100.00;100384.81;6146985;23;20200;-74
2021/11/05 04:16:47;;;;;;;8.07;5.40;;;;;;;5.50;100.00;100388.28;6156874;23;20177;-74
2021/11/05 04:19:15;;;;;;;8.53;5.20;;;;;;;5.48;100.00;100390.88;6156452;23;20603;-74
2021/11/05 04:21:41;;;;;;;8.87;5.87;;;;;;;5.47;100.00;100394.34;6157005;23;20181;-74
2021/11/05 04:24:08;;;;;;;6.93;5.00;;;;;;;5.47;100.00;100396.94;6157034;23;20187;-74
2021/11/05 04:26:35;;;;;;;7.50;5.13;;;;;;;5.45;100.00;100400.38;6156484;23;20634;-74
2021/11/05 04:29:02;;;;;;;7.87;5.30;;;;;;;5.44;100.00;100401.28;6157098;23;20183;-74
2021/11/05 04:31:28;;;;;;;7.63;4.80;;;;;;;5.44;100.00;100411.63;6156571;23;20678;-74
2021/11/05 04:33:55;;;;;;;7.70;4.80;;;;;;;5.42;100.00;100421.13;6156555;23;20187;-74
2021/11/05 04:36:23;;;;;;;5.70;4.77;;;;;;;5.41;100.00;100417.66;6156180;23;20204;-73
2021/11/05 04:38:50;;;;;;;8.03;5.50;;;;;;;5.41;100.00;100434.91;6146568;23;20197;-74
2021/11/05 04:41:17;;;;;;;7.30;4.73;;;;;;;5.39;100.00;100428.91;6156310;23;20794;-74
2021/11/05 04:43:43;;;;;;;7.97;4.90;;;;;;;5.39;100.00;100432.34;6156495;23;20265;-74
2021/11/05 04:46:10;;;;;;;7.93;5.10;;;;;;;5.38;100.00;100433.22;6155976;23;20687;-74
2021/11/05 04:48:36;;;;;;;6.60;4.67;;;;;;;5.38;100.00;100434.94;6156487;23;20177;-74
2021/11/05 04:51:03;;;;;;;7.93;5.17;;;;;;;5.38;100.00;100437.50;6156664;23;20255;-73
2021/11/05 04:53:30;;;;;;;9.03;5.63;;;;;;;5.37;100.00;100449.59;6156206;23;20184;-74
2021/11/05 04:55:57;;;;;;;7.97;4.70;;;;;;;5.37;100.00;100449.59;6155935;23;20197;-75
2021/11/05 04:58:23;;;;;;;9.07;5.47;;;;;;;5.38;100.00;100447.84;6155883;23;20292;-76
2021/11/05 05:00:50;;;;;;;8.13;5.00;;;;;;;5.39;100.00;100447.00;6156044;23;20259;-76
2021/11/05 05:03:16;;;;;;;8.00;5.20;;;;;;;5.39;100.00;100454.75;6156592;23;20727;-76
2021/11/05 05:05:43;;;;;;;7.47;4.87;;;;;;;5.38;100.00;100460.78;6157495;23;20197;-76
2021/11/05 05:08:09;;;;;;;6.97;5.13;;;;;;;5.37;100.00;100461.66;6157865;23;20260;-75
2021/11/05 05:10:37;;;;;;;8.83;5.53;;;;;;;5.37;100.00;100464.25;6157345;23;20264;-75
2021/11/05 05:13:03;;;;;;;9.50;5.27;;;;;;;5.38;100.00;100463.38;6157043;23;20263;-75
2021/11/05 05:15:29;;;;;;;8.70;5.90;;;;;;;5.37;100.00;100465.09;6157551;23;20983;-75
2021/11/05 05:17:56;;;;;;;10.20;5.50;;;;;;;5.36;100.00;100468.56;6147057;23;20280;-75
2021/11/05 05:20:23;;;;;;;9.57;5.87;;;;;;;5.37;100.00;100466.84;6157483;23;20447;-74
2021/11/05 05:22:49;;;;;;;10.17;5.60;;;;;;;5.37;100.00;100472.88;6156728;23;20189;-74
2021/11/05 05:25:17;;;;;;;8.17;5.50;;;;;;;5.36;100.00;100478.88;6157185;23;20220;-73
2021/11/05 05:27:47;;;;;;;9.30;5.10;;;;;;;5.36;100.00;100478.88;6157956;23;20627;-74
2021/11/05 05:30:16;;;;;;;7.33;4.90;;;;;;;5.36;100.00;100485.81;6157759;23;20476;-74
2021/11/05 05:32:45;;;;;;;8.87;5.03;;;;;;;5.36;100.00;100486.66;6158224;23;20604;-74
2021/11/05 05:35:12;;;;;;;7.70;4.80;;;;;;;5.36;100.00;100494.41;6157517;23;20216;-74
2021/11/05 05:37:39;;;;;;;8.77;4.93;;;;;;;5.33;100.00;100491.88;6157943;23;20176;-74
2021/11/05 05:40:07;;;;;;;7.10;4.73;;;;;;;5.32;100.00;100493.56;6156610;23;20259;-74
2021/11/05 05:42:34;;;;;;;6.30;4.63;;;;;;;5.34;100.00;100509.06;6158106;23;20177;-74
2021/11/05 05:45:02;;;;;;;7.83;5.50;;;;;;;5.33;100.00;100502.19;6157528;23;20196;-74
2021/11/05 05:47:28;;;;;;;8.20;5.10;;;;;;;5.33;100.00;100504.78;6157687;23;21034;-74
2021/11/05 05:49:54;;;;;;;8.03;4.77;;;;;;;5.33;100.00;100509.97;6157567;23;20179;-74
2021/11/05 05:52:21;;;;;;;7.53;5.07;;;;;;;5.35;100.00;100513.38;6157592;23;20176;-74
2021/11/05 05:54:47;;;;;;;7.57;4.77;;;;;;;5.34;100.00;100513.41;6156024;23;20201;-74
2021/11/05 05:57:14;;;;;;;7.10;5.03;;;;;;;5.35;100.00;100518.56;6146210;23;20267;-74
2021/11/05 05:59:40;;;;;;;6.83;4.77;;;;;;;5.36;100.00;100529.75;6156078;23;20224;-74
2021/11/05 06:02:08;;;;;;;7.17;5.27;;;;;;;5.34;100.00;100532.34;6157227;23;20177;-74
2021/11/05 06:04:36;;;;;;;6.87;4.90;;;;;;;5.34;100.00;100536.66;6157367;23;20547;-74
2021/11/05 06:07:21;;;;;;;5.53;4.10;;;;;;;5.35;100.00;100544.41;6157584;23;20187;-73
2021/11/05 06:09:47;;;;;;;5.40;4.30;;;;;;;5.34;100.00;100550.44;6157029;23;20173;-74
2021/11/05 06:12:14;;;;;;;6.77;4.47;;;;;;;5.35;100.00;100546.13;6157457;23;20846;-74
2021/11/05 06:14:41;;;;;;;4.80;3.77;;;;;;;5.34;100.00;100553.03;6157202;23;20598;-74
2021/11/05 06:17:08;;;;;;;6.23;4.10;;;;;;;5.34;100.00;100560.78;6157185;23;20173;-73
2021/11/05 06:19:35;;;;;;;5.60;3.70;;;;;;;5.33;100.00;100569.44;6156161;23;20192;-75
2021/11/05 06:22:02;;;;;;;6.47;3.50;;;;;;;5.34;100.00;100571.13;6156780;23;20263;-75
2021/11/05 06:24:28;;;;;;;4.97;3.80;;;;;;;5.33;100.00;100574.59;6154922;23;20255;-75
2021/11/05 06:26:55;;;;;;;5.10;3.63;;;;;;;5.32;100.00;100581.47;6155497;23;20203;-74
2021/11/05 06:29:21;;;;;;;4.57;3.37;;;;;;;5.32;100.00;100584.06;6155477;23;20543;-75
2021/11/05 06:31:47;;;;;;;4.27;3.20;;;;;;;5.35;100.00;100590.97;6154862;23;20177;-75
2021/11/05 06:34:15;;;;;;;3.37;2.73;;;;;;;5.32;100.00;100593.56;6144971;23;20186;-74
2021/11/05 06:36:42;;;;;;;3.70;2.73;;;;;;;5.32;100.00;100596.13;6155668;23;20279;-75
2021/11/05 06:39:08;;;;;;;3.63;3.10;;;;;;;5.31;100.00;100603.03;6154793;23;20193;-75
2021/11/05 06:41:35;;;;;;;4.40;3.40;;;;;;;5.30;100.00;100609.06;6153821;23;20243;-74
2021/11/05 06:44:01;;;;;;;3.83;3.20;;;;;;;5.31;100.00;100612.50;6156236;23;20187;-74
2021/11/05 06:46:28;;;;;;;4.03;3.07;;;;;;;5.32;100.00;100616.81;6157036;23;20179;-75
2021/11/05 06:48:54;;;;;;;4.00;3.10;;;;;;;5.32;100.00;100620.25;6155223;23;20574;-74
2021/11/05 06:51:22;;;;;;;5.07;3.27;;;;;;;5.32;100.00;100629.75;6156288;23;20183;-74
2021/11/05 06:53:49;;;;;;;5.30;3.07;;;;;;;5.32;100.00;100632.34;6156345;23;20511;-74
2021/11/05 07:00:02;;;;;;;4.00;2.80;;;;;;;5.36;100.00;100652.13;6155087;23;20211;-75
2021/11/05 07:02:29;;;;;;;3.60;3.20;;;;;;;5.36;100.00;100662.47;6156247;23;20187;-75
2021/11/05 07:04:56;;;;;;;4.53;3.17;;;;;;;5.39;100.00;100669.38;6156715;23;20197;-74
2021/11/05 07:07:23;;;;;;;4.97;3.13;;;;;;;5.41;100.00;100670.22;6156468;23;20184;-74
2021/11/05 07:09:50;;;;;;;4.63;3.60;;;;;;;5.41;100.00;100672.81;6154303;23;20169;-74
2021/11/05 07:12:17;;;;;;;4.27;3.07;;;;;;;5.40;100.00;100673.66;6153035;23;20654;-75
2021/11/05 07:14:46;;;;;;;7.97;4.03;;;;;;;5.42;100.00;100679.72;6154050;23;20284;-75
2021/11/05 07:17:13;;;;;;;3.93;3.53;;;;;;;5.40;100.00;100684.88;6151795;23;20187;-74
2021/11/05 07:19:39;;;;;;;4.23;3.30;;;;;;;5.42;100.00;100690.06;6154625;23;20603;-75
2021/11/05 07:22:06;;;;;;;4.77;3.87;;;;;;;5.44;100.00;100698.66;6155370;23;20259;-74
2021/11/05 07:24:36;;;;;;;4.27;3.43;;;;;;;5.44;100.00;100706.41;6155686;23;20267;-75
2021/11/05 07:27:04;;;;;;;6.33;4.30;;;;;;;5.46;100.00;100707.25;6156483;23;20228;-74
2021/11/05 07:29:31;;;;;;;5.27;4.10;;;;;;;5.48;100.00;100718.47;6155805;23;20176;-75
2021/11/05 07:32:00;;;;;;;5.87;4.03;;;;;;;5.49;100.00;100726.22;6156095;23;20183;-74
2021/11/05 07:34:30;;;;;;;6.40;4.30;;;;;;;5.50;100.00;100732.25;6155160;23;20204;-75
2021/11/05 07:36:56;;;;;;;5.93;4.33;;;;;;;5.52;100.00;100732.25;6119156;23;20173;-74
2021/11/05 07:39:23;;;;;;;5.13;4.03;;;;;;;5.55;100.00;100742.59;6145179;23;20204;-74
2021/11/05 07:41:50;;;;;;;5.50;4.40;;;;;;;5.56;100.00;100744.28;6117219;23;20186;-74
2021/11/05 07:44:17;;;;;;;6.17;4.83;;;;;;;5.57;100.00;100752.03;6155368;23;20172;-74
2021/11/05 07:46:45;;;;;;;7.37;4.53;;;;;;;5.60;100.00;100753.78;6155517;23;20177;-75
2021/11/05 07:49:12;;;;;;;5.83;4.77;;;;;;;5.63;100.00;100753.78;6155457;23;20179;-75
2021/11/05 07:51:38;;;;;;;6.23;4.80;;;;;;;5.65;100.00;100767.56;6155972;23;20181;-74
2021/11/05 07:54:05;;;;;;;5.63;4.57;;;;;;;5.67;100.00;100765.81;6154866;23;20251;-74
2021/11/05 07:56:49;;;;;;;5.90;4.30;;;;;;;5.68;100.00;100763.22;6145795;23;20181;-74
2021/11/05 08:00:02;;;;;;;6.30;5.10;;;;;;;5.72;100.00;100764.06;6155196;23;20532;-74
2021/11/05 08:02:38;;;;;;;5.77;4.30;;;;;;;5.73;100.00;100770.94;6155108;23;20631;-74
2021/11/05 08:08:35;;;;;;;8.30;5.37;;;;;;;5.77;100.00;100776.97;6129521;23;20735;-75
2021/11/05 08:11:18;;;;;;;;;;;;;;;;;;;;;
2021/11/05 08:14:11;;;;;;;8.50;5.37;;;;;;;5.79;100.00;100799.41;6155240;23;20541;-74
2021/11/05 08:16:41;;;;;;;8.80;6.23;;;;;;;5.80;100.00;100808.03;6155069;23;20211;-73
2021/11/05 08:19:08;;;;;;;8.77;6.17;;;;;;;5.82;100.00;100803.69;6144899;23;20283;-73
2021/11/05 08:21:34;;;;;;;11.23;6.10;;;;;;;5.81;100.00;100815.78;6155305;23;20181;-73
2021/11/05 08:24:01;;;;;;;9.37;6.07;;;;;;;5.84;100.00;100812.31;6155080;23;20183;-73
2021/11/05 08:26:28;;;;;;;8.37;5.87;;;;;;;5.87;100.00;100820.06;6154661;23;20247;-73
2021/11/05 08:28:55;;;;;;;9.27;6.10;;;;;;;5.87;100.00;100820.94;6154771;23;20172;-73
2021/11/05 08:31:22;;;;;;;7.20;5.67;;;;;;;5.88;100.00;100816.63;6155490;23;20679;-73
2021/11/05 08:33:50;;;;;;;7.70;6.27;;;;;;;5.91;100.00;100832.16;6155079;23;20181;-73
2021/11/05 08:36:19;;;;;;;8.00;5.87;;;;;;;5.93;100.00;100830.41;6154923;23;20706;-73
2021/11/05 08:38:46;;;;;;;9.57;6.60;;;;;;;5.95;100.00;100828.69;6157624;23;20188;-74
2021/11/05 08:41:16;;;;;;;10.60;6.03;;;;;;;5.98;100.00;100833.00;6156604;23;20267;-73
2021/11/05 08:43:44;;;;;;;9.90;6.37;;;;;;;5.98;100.00;100844.22;6157436;23;20172;-73
2021/11/05 08:46:12;;;;;;;9.37;6.40;;;;;;;5.99;100.00;100845.94;6157405;23;20746;-73
2021/11/05 08:48:39;;;;;;;9.37;6.00;;;;;;;6.00;100.00;100852.00;6157498;23;20544;-73
2021/11/05 08:51:10;;;;;;;9.90;6.50;;;;;;;6.01;100.00;100858.88;6157489;23;20181;-73
2021/11/05 08:53:36;;;;;;;8.30;6.10;;;;;;;6.02;100.00;100870.97;6157573;23;20173;-73
2021/11/05 08:56:06;;;;;;;9.83;6.97;;;;;;;6.01;100.00;100870.09;6156820;23;20206;-73
2021/11/05 08:58:33;;;;;;;9.03;6.23;;;;;;;6.03;100.00;100880.44;6157497;23;20204;-73
2021/11/05 09:00:59;;;;;;;9.60;7.17;;;;;;;6.06;100.00;100875.25;6156434;23;20180;-74
2021/11/05 09:03:26;;;;;;;9.47;6.80;;;;;;;6.07;100.00;100887.34;6156391;23;20181;-73
2021/11/05 09:05:53;;;;;;;9.67;6.87;;;;;;;6.06;100.00;100890.78;6120414;23;20799;-73
2021/11/05 09:08:20;;;;;;;9.80;6.60;;;;;;;6.08;100.00;100883.88;6156742;23;20682;-74
2021/11/05 09:10:48;;;;;;;10.57;6.77;;;;;;;6.09;100.00;100898.56;6156954;23;20470;-73
2021/11/05 09:13:14;;;;;;;10.07;7.07;;;;;;;6.09;100.00;100895.97;6156528;23;20258;-73
2021/11/05 09:15:41;;;;;;;12.57;7.47;;;;;;;6.10;100.00;100891.63;6156607;23;20196;-73
2021/11/05 09:18:10;;;;;;;9.30;7.00;;;;;;;6.11;100.00;100893.38;6146006;23;20176;-73
2021/11/05 09:20:38;;;;;;;10.30;7.17;;;;;;;6.15;100.00;100895.06;6156422;23;20991;-73
2021/11/05 09:23:04;;;;;;;9.77;7.57;;;;;;;6.15;100.00;100898.50;6156618;23;20205;-73
2021/11/05 09:25:33;;;;;;;9.87;6.90;;;;;;;6.17;100.00;100906.28;6156768;23;20197;-73
2021/11/05 09:27:59;;;;;;;9.30;6.70;;;;;;;6.19;100.00;100913.19;6156574;23;20180;-74
2021/11/05 09:30:37;;;;;;;11.83;7.90;;;;;;;6.18;100.00;100919.22;6146705;23;20458;-73
2021/11/05 09:33:17;;;;;;;11.23;7.90;;;;;;;6.21;100.00;100920.97;6119442;23;20212;-73
2021/11/05 09:35:48;;;;;;;13.33;8.00;;;;;;;6.18;100.00;100928.72;6155903;23;20911;-73
2021/11/05 09:38:21;;;;;;;13.13;9.63;;;;;;;6.20;100.00;100935.59;6145188;23;20177;-74
2021/11/05 09:40:57;;;;;;;14.90;11.47;;;;;;;6.26;100.00;100926.94;6156004;23;20887;-74
2021/11/05 09:43:40;;;;;;;11.67;8.47;;;;;;;6.30;100.00;100932.97;6146741;23;20235;-73
2021/11/05 09:46:16;;;;;;;14.33;10.53;;;;;;;6.31;100.00;100939.91;6145131;23;20200;-73
2021/11/05 09:48:59;;;;;;;26.53;16.87;;;;;;;6.34;100.00;100945.06;6156948;23;20172;-74
2021/11/05 09:51:38;;;;;;;14.33;10.70;;;;;;;6.34;100.00;100945.94;6155359;23;20183;-73
2021/11/05 09:54:14;;;;;;;13.83;9.50;;;;;;;6.39;100.00;100946.78;6144299;23;20187;-73
2021/11/05 09:57:11;;;;;;;17.53;9.43;;;;;;;6.43;100.00;100952.81;6156710;23;20181;-73
2021/11/05 09:59:56;;;;;;;12.30;8.73;;;;;;;6.39;100.00;100951.09;6156338;23;20199;-73
2021/11/05 10:02:30;;;;;;;14.77;9.80;;;;;;;6.41;100.00;100957.13;6120531;23;20188;-73
2021/11/05 10:05:06;;;;;;;13.47;8.43;;;;;;;6.43;100.00;100960.56;6119748;23;20193;-74
2021/11/05 10:07:59;;;;;;;15.40;9.43;;;;;;;6.42;100.00;100958.84;6157324;23;20172;-74
2021/11/05 10:10:48;;;;;;;12.33;8.37;;;;;;;6.43;100.00;100969.19;6145343;23;20257;-74
2021/11/05 10:13:27;;;;;;;13.00;8.83;;;;;;;6.47;100.00;100977.81;6119090;23;20181;-73
2021/11/05 10:16:24;;;;;;;13.30;9.47;;;;;;;6.54;100.00;100983.84;6146927;23;20192;-73
2021/11/05 10:19:01;;;;;;;14.33;9.30;;;;;;;6.56;100.00;100982.09;6155666;23;20180;-73
2021/11/05 10:21:54;;;;;;;15.30;9.57;;;;;;;6.64;100.00;100975.16;6120697;23;20237;-74
2021/11/05 10:24:33;;;;;;;16.90;10.40;;;;;;;6.62;100.00;100982.09;6155660;23;20228;-73
2021/11/05 10:27:05;;;;;;;18.07;10.17;;;;;;;6.66;100.00;100988.13;6119554;23;20200;-74
2021/11/05 10:29:55;;;;;;;;;;;;;;;;;;;;;
2021/11/05 10:32:40;;;;;;;16.70;10.50;;;;;;;6.70;100.00;100989.81;6155457;23;20271;-73
2021/11/05 10:35:24;;;;;;;15.17;10.80;;;;;;;6.76;100.00;100982.03;6145625;23;20201;-73
2021/11/05 10:38:10;;;;;;;17.40;12.43;;;;;;;6.78;100.00;100990.66;6145722;23;20185;-73
2021/11/05 10:40:48;;;;;;;16.27;10.93;;;;;;;6.85;100.00;100994.94;6153828;23;20565;-73
2021/11/05 10:43:49;;;;;;;14.93;10.00;;;;;;;6.87;100.00;101007.91;6154696;23;20634;-74
2021/11/05 10:46:51;;;;;;;18.37;12.53;;;;;;;6.94;100.00;101007.84;6154606;23;20274;-73
2021/11/05 10:49:41;;;;;;;20.97;13.40;;;;;;;6.89;100.00;101014.78;6155227;23;20189;-73
2021/11/05 10:52:40;;;;;;;20.47;12.47;;;;;;;6.88;100.00;101014.78;6144878;23;20635;-73
2021/11/05 10:55:23;;;;;;;15.40;11.13;;;;;;;6.87;100.00;101018.28;6154756;23;20578;-74
2021/11/05 10:58:09;;;;;;;18.20;12.27;;;;;;;6.89;100.00;101012.19;6154880;23;20515;-74
2021/11/05 11:01:29;;;;;;;17.03;10.77;;;;;;;6.87;100.00;101016.53;6153983;23;20528;-74
2021/11/05 11:04:46;;;;;;;15.27;11.13;;;;;;;6.96;100.00;101023.41;6153211;23;20537;-74
2021/11/05 11:07:47;;;;;;;15.83;11.30;;;;;;;6.96;100.00;101019.06;6154941;23;20443;-73
2021/11/05 11:10:50;;;;;;;14.47;10.93;;;;;;;6.99;100.00;101020.81;6153987;23;20628;-74
2021/11/05 11:13:50;;;;;;;16.97;11.07;;;;;;;6.98;100.00;101016.47;6155076;23;20627;-74
2021/11/05 11:16:39;;;;;;;17.70;11.53;;;;;;;7.07;100.00;101024.22;6154931;23;20203;-74
2021/11/05 11:19:26;;;;;;;19.47;11.93;;;;;;;7.11;100.00;101027.66;6144136;23;20584;-74
2021/11/05 11:24:59;;;;;;;18.53;12.33;;;;;;;7.16;100.00;101034.53;6137030;23;20287;-74
2021/11/05 11:27:36;;;;;;;18.50;12.63;;;;;;;7.22;100.00;101032.78;6153735;23;20505;-74
2021/11/05 11:30:21;;;;;;;19.17;12.97;;;;;;;7.22;100.00;101033.63;6153291;23;20234;-74
2021/11/05 11:33:06;;;;;;;17.87;12.80;;;;;;;7.24;100.00;101042.28;6152516;23;20754;-74
2021/11/05 11:36:04;;;;;;;17.87;11.73;;;;;;;7.22;100.00;101045.75;6151395;23;20793;-74
2021/11/05 11:39:04;;;;;;;16.47;11.87;;;;;;;7.16;100.00;101054.44;6153904;23;20619;-74
2021/11/05 11:41:59;;;;;;;17.47;12.43;;;;;;;7.15;100.00;101048.38;6152818;23;20540;-74
2021/11/05 11:44:52;;;;;;;15.17;11.23;;;;;;;7.16;100.00;101057.03;6153044;23;20523;-74
2021/11/05 11:47:59;;;;;;;16.43;11.70;;;;;;;7.13;100.00;101057.88;6119857;23;20594;-74
2021/11/05 11:50:30;;;;;;;16.80;11.50;;;;;;;7.06;100.00;101065.72;6141356;23;20517;-74
2021/11/05 11:53:03;;;;;;;15.37;10.70;;;;;;;7.10;100.00;101064.81;6153502;23;20177;-74
2021/11/05 11:55:33;;;;;;;20.07;11.67;;;;;;;7.09;100.00;101070.88;6141425;23;20224;-74
2021/11/05 11:58:12;;;;;;;17.60;11.70;;;;;;;7.05;100.00;101075.22;6154963;23;20190;-74
2021/11/05 12:00:40;;;;;;;15.07;10.90;;;;;;;7.01;100.00;101066.56;6153807;23;20640;-74
2021/11/05 12:03:08;;;;;;;15.43;11.57;;;;;;;7.00;100.00;101079.53;6140071;23;20239;-74
2021/11/05 12:05:40;;;;;;;16.63;12.23;;;;;;;6.99;100.00;101077.84;6144040;23;20203;-74
2021/11/05 12:08:16;;;;;;;18.57;12.50;;;;;;;6.98;100.00;101086.47;6153598;23;20169;-74
2021/11/05 12:10:47;;;;;;;19.40;12.33;;;;;;;7.00;100.00;101082.13;6144269;23;20180;-74
2021/11/05 12:13:43;;;;;;;16.10;11.77;;;;;;;7.01;100.00;101091.66;6156262;23;20185;-74
2021/11/05 12:16:25;;;;;;;17.87;12.03;;;;;;;6.99;100.00;101096.84;6155314;23;20525;-74